This is the latest recevied weather packets stored in our database for station/object HR1LRC-21. If no packets are shown the sender has not sent any weather packets the latest 10 day(s).
| Time | Temp. | Humidity | Pressure | Rain* | Wind** | Luminosity | Snow |
|---|---|---|---|---|---|---|---|
| 1777742742 | 25° C | 50% | 1013 hPa | 0 mm | - | - | - |
| 1777742142 | 24.44° C | 50% | 1012 hPa | 0 mm | - | - | - |
| 1777741541 | 24.44° C | 50% | 1012 hPa | 0 mm | - | - | - |
| 1777740940 | 24.44° C | 49% | 1012 hPa | 0 mm | - | - | - |
| 1777740338 | 24.44° C | 51% | 1013 hPa | 0 mm | - | - | - |
| 1777739737 | 24.44° C | 51% | 1013 hPa | 0 mm | - | - | - |
| 1777739137 | 23.33° C | 56% | 1014 hPa | 0 mm | - | - | - |
| 1777738536 | 22.78° C | 56% | 1013 hPa | 0 mm | - | - | - |
| 1777737936 | 22.78° C | 56% | 1013 hPa | 0 mm | - | - | - |
| 1777737335 | 22.78° C | 55% | 1013 hPa | 0 mm | - | - | - |
| 1777736734 | 22.78° C | 56% | 1013 hPa | 0 mm | - | - | - |
| 1777736134 | 21.67° C | 60% | 1013 hPa | 0 mm | - | - | - |
| 1777735533 | 21.67° C | 60% | 1014 hPa | 0 mm | - | - | - |
| 1777734932 | 21.67° C | 60% | 1014 hPa | 0 mm | - | - | - |
| 1777734332 | 21.67° C | 60% | 1014 hPa | 0 mm | - | - | - |
| 1777733731 | 21.67° C | 60% | 1014 hPa | 0 mm | - | - | - |
| 1777733130 | 21.11° C | 61% | 1014 hPa | 0 mm | - | - | - |
| 1777732530 | 20.56° C | 62% | 1014 hPa | 0 mm | - | - | - |
| 1777731929 | 20.56° C | 62% | 1014 hPa | 0 mm | - | - | - |
| 1777731329 | 20.56° C | 62% | 1014 hPa | 0 mm | - | - | - |
| 1777730728 | 20.56° C | 62% | 1014 hPa | 0 mm | - | - | - |
| 1777730127 | 20.56° C | 62% | 1014 hPa | 0 mm | - | - | - |
| 1777729527 | 20.56° C | 62% | 1014 hPa | 0 mm | - | - | - |
| 1777728926 | 20.56° C | 62% | 1014 hPa | 0 mm | - | - | - |
| 1777728325 | 20.56° C | 62% | 1014 hPa | 0 mm | - | - | - |
* Rain latest hour (hover to see other rain measurements)
** Current wind speed in m/s (hover to see current wind gust speed)